Time;durP1;ratioP1;P1;durP2;ratioP2;P2;SDS_P1;SDS_P2;PMS_P1;PMS_P2;Temp;Humidity;BMP_temperature;BMP_pressure;BME280_temperature;BME280_humidity;BME280_pressure;Samples;Min_cycle;Max_cycle;Signal;HPM_P1;HPM_P2
2021/06/15 00:02:04;;;;;;;7.03;1.80;;;;;;;;;;5114091;28;20088;-68
2021/06/15 00:04:30;;;;;;;11.30;2.63;;;;;;;;;;5102943;28;20447;-67
2021/06/15 00:06:55;;;;;;;9.20;2.17;;;;;;;;;;5108583;28;20259;-67
2021/06/15 00:09:23;;;;;;;11.15;2.40;;;;;;;;;;5108139;28;20028;-67
2021/06/15 00:11:49;;;;;;;10.60;1.80;;;;;;;;;;5107070;28;20048;-67
2021/06/15 00:14:14;;;;;;;7.53;1.92;;;;;;;;;;5100483;28;20036;-66
2021/06/15 00:16:40;;;;;;;12.57;2.70;;;;;;;;;;5111708;28;20040;-66
2021/06/15 00:19:05;;;;;;;12.75;2.15;;;;;;;;;;5110071;28;20031;-66
2021/06/15 00:21:30;;;;;;;10.75;2.03;;;;;;;;;;5104936;28;20051;-67
2021/06/15 00:23:56;;;;;;;9.80;2.22;;;;;;;;;;5102826;28;20040;-66
2021/06/15 00:26:21;;;;;;;12.45;2.72;;;;;;;;;;5111670;28;20020;-66
2021/06/15 00:28:47;;;;;;;14.13;3.72;;;;;;;;;;5098736;28;20027;-66
2021/06/15 00:31:12;;;;;;;9.82;2.42;;;;;;;;;;5108749;28;20089;-66
2021/06/15 00:33:37;;;;;;;11.50;2.67;;;;;;;;;;5087422;28;20371;-67
2021/06/15 00:36:03;;;;;;;10.02;2.47;;;;;;;;;;5101483;28;20503;-67
2021/06/15 00:38:28;;;;;;;13.38;2.88;;;;;;;;;;5111889;28;20024;-66
2021/06/15 00:40:53;;;;;;;9.15;2.35;;;;;;;;;;5098840;28;20072;-68
2021/06/15 00:43:19;;;;;;;8.63;2.33;;;;;;;;;;5107407;28;20032;-67
2021/06/15 00:45:44;;;;;;;9.13;2.83;;;;;;;;;;5106100;28;20038;-68
2021/06/15 00:48:19;;;;;;;11.50;2.33;;;;;;;;;;5100331;28;20478;-67
2021/06/15 00:50:44;;;;;;;13.20;4.43;;;;;;;;;;5111630;28;20058;-67
2021/06/15 00:53:09;;;;;;;9.85;2.58;;;;;;;;;;5097123;28;20472;-67
2021/06/15 00:55:35;;;;;;;15.45;3.50;;;;;;;;;;5104685;28;20024;-67
2021/06/15 00:58:00;;;;;;;11.82;2.72;;;;;;;;;;5101328;28;20024;-66
2021/06/15 01:00:25;;;;;;;21.58;3.45;;;;;;;;;;5111417;28;20039;-67
2021/06/15 01:02:50;;;;;;;11.75;2.67;;;;;;;;;;5098035;28;20020;-67
2021/06/15 01:05:16;;;;;;;14.10;2.88;;;;;;;;;;5107441;28;20089;-68
2021/06/15 01:07:45;;;;;;;17.38;2.95;;;;;;;;;;5112254;28;20038;-68
2021/06/15 01:10:16;;;;;;;9.15;2.92;;;;;;;;;;5099459;28;20024;-67
2021/06/15 01:12:44;;;;;;;14.95;2.75;;;;;;;;;;5112564;28;20045;-67
2021/06/15 01:15:15;;;;;;;19.00;3.05;;;;;;;;;;5114452;28;20027;-67
2021/06/15 01:17:43;;;;;;;11.43;3.28;;;;;;;;;;5096091;28;20380;-67
2021/06/15 01:20:18;;;;;;;17.40;3.05;;;;;;;;;;5114278;28;20110;-67
2021/06/15 01:22:44;;;;;;;;;;;;;;;;;;5114617;28;20059;-66
2021/06/15 01:25:20;;;;;;;10.90;3.42;;;;;;;;;;5114241;28;19962;-66
2021/06/15 01:27:49;;;;;;;11.38;2.88;;;;;;;;;;5114422;28;20035;-66
2021/06/15 01:30:16;;;;;;;16.52;3.33;;;;;;;;;;5112792;28;20475;-66
2021/06/15 01:32:45;;;;;;;13.38;4.57;;;;;;;;;;5113944;28;20034;-67
2021/06/15 01:35:11;;;;;;;13.63;3.70;;;;;;;;;;5113825;28;20070;-67
2021/06/15 01:37:41;;;;;;;13.98;3.33;;;;;;;;;;5113043;28;20060;-67
2021/06/15 01:40:22;;;;;;;19.05;3.90;;;;;;;;;;5113662;28;20466;-67
2021/06/15 01:42:51;;;;;;;16.42;3.85;;;;;;;;;;5114098;28;20038;-67
2021/06/15 01:45:24;;;;;;;10.60;4.65;;;;;;;;;;5113948;28;20030;-67
2021/06/15 01:47:59;;;;;;;19.35;4.22;;;;;;;;;;5114209;28;20039;-67
2021/06/15 01:50:31;;;;;;;16.38;4.10;;;;;;;;;;5113061;28;20058;-67
2021/06/15 01:52:57;;;;;;;14.30;4.13;;;;;;;;;;5114268;28;20032;-67
2021/06/15 01:55:23;;;;;;;17.73;4.38;;;;;;;;;;5095486;28;20043;-67
2021/06/15 01:57:49;;;;;;;21.30;4.25;;;;;;;;;;5113419;28;20023;-67
2021/06/15 02:00:15;;;;;;;18.30;4.53;;;;;;;;;;5112843;28;20030;-67
2021/06/15 02:02:41;;;;;;;11.85;4.28;;;;;;;;;;5113338;28;20379;-67
2021/06/15 02:05:08;;;;;;;27.33;5.20;;;;;;;;;;5113703;28;20031;-67
2021/06/15 02:07:37;;;;;;;12.32;4.38;;;;;;;;;;5113491;28;20069;-67
2021/06/15 02:10:07;;;;;;;17.20;4.85;;;;;;;;;;5113560;28;20045;-68
2021/06/15 02:12:33;;;;;;;20.35;4.95;;;;;;;;;;5113265;28;20035;-67
2021/06/15 02:14:59;;;;;;;19.90;4.90;;;;;;;;;;5113657;28;20028;-67
2021/06/15 02:17:25;;;;;;;14.25;4.43;;;;;;;;;;5113232;28;20039;-67
2021/06/15 02:19:51;;;;;;;18.83;5.20;;;;;;;;;;5113857;28;20353;-67
2021/06/15 02:22:18;;;;;;;14.20;4.85;;;;;;;;;;5113127;28;20022;-67
2021/06/15 02:25:01;;;;;;;17.67;4.90;;;;;;;;;;5113435;28;20032;-67
2021/06/15 02:27:26;;;;;;;19.85;5.00;;;;;;;;;;5113641;28;20050;-67
2021/06/15 02:29:56;;;;;;;21.77;5.65;;;;;;;;;;5113283;28;20031;-67
2021/06/15 02:32:23;;;;;;;11.07;4.25;;;;;;;;;;5112946;28;20031;-67
2021/06/15 02:34:49;;;;;;;16.00;5.15;;;;;;;;;;5112932;28;20091;-67
2021/06/15 02:37:20;;;;;;;14.40;5.53;;;;;;;;;;5113068;28;20115;-68
2021/06/15 02:39:46;;;;;;;17.13;5.20;;;;;;;;;;5113112;28;20365;-66
2021/06/15 02:42:13;;;;;;;20.13;5.07;;;;;;;;;;5113573;28;20035;-68
2021/06/15 02:44:40;;;;;;;12.15;5.18;;;;;;;;;;5113031;28;20031;-67
2021/06/15 02:47:06;;;;;;;20.27;5.10;;;;;;;;;;5113208;28;20118;-67
2021/06/15 02:49:35;;;;;;;22.95;6.03;;;;;;;;;;5113214;28;20028;-67
2021/06/15 02:52:08;;;;;;;21.27;5.50;;;;;;;;;;5112945;28;20052;-66
2021/06/15 02:54:40;;;;;;;19.13;5.13;;;;;;;;;;5113330;28;20038;-67
2021/06/15 02:57:06;;;;;;;17.38;4.88;;;;;;;;;;5112964;28;20027;-67
2021/06/15 02:59:32;;;;;;;10.60;4.80;;;;;;;;;;5112946;28;20046;-67
2021/06/15 03:01:57;;;;;;;16.17;5.20;;;;;;;;;;5113096;28;20448;-67
2021/06/15 03:04:22;;;;;;;18.10;4.97;;;;;;;;;;5112849;28;20071;-67
2021/06/15 03:06:47;;;;;;;17.50;5.13;;;;;;;;;;5112636;28;20040;-67
2021/06/15 03:09:13;;;;;;;26.42;5.63;;;;;;;;;;5113428;28;20028;-67
2021/06/15 03:11:44;;;;;;;26.27;5.78;;;;;;;;;;5112991;28;20047;-66
2021/06/15 03:14:14;;;;;;;19.50;6.43;;;;;;;;;;5113077;28;20023;-67
2021/06/15 03:16:40;;;;;;;22.83;6.00;;;;;;;;;;5112961;28;20463;-67
2021/06/15 03:19:07;;;;;;;15.00;5.88;;;;;;;;;;5113083;28;20120;-67
2021/06/15 03:21:43;;;;;;;30.80;6.55;;;;;;;;;;5112981;28;20080;-67
2021/06/15 03:24:10;;;;;;;18.45;6.25;;;;;;;;;;5113604;28;20043;-67
2021/06/15 03:26:40;;;;;;;27.88;6.90;;;;;;;;;;5116613;28;20039;-67
2021/06/15 03:29:08;;;;;;;25.60;5.85;;;;;;;;;;5117099;28;20063;-67
2021/06/15 03:31:37;;;;;;;21.60;5.90;;;;;;;;;;5116076;28;20028;-66
2021/06/15 03:34:02;;;;;;;21.17;5.88;;;;;;;;;;5116701;28;20031;-67
2021/06/15 03:36:30;;;;;;;15.20;5.88;;;;;;;;;;5115986;28;20019;-67
2021/06/15 03:38:56;;;;;;;16.88;5.15;;;;;;;;;;5116533;28;20034;-67
2021/06/15 03:41:22;;;;;;;29.80;6.20;;;;;;;;;;5116375;28;20061;-67
2021/06/15 03:43:50;;;;;;;22.48;5.50;;;;;;;;;;5116202;28;20051;-67
2021/06/15 03:46:17;;;;;;;20.33;6.07;;;;;;;;;;5116288;28;20046;-67
2021/06/15 03:48:44;;;;;;;24.08;6.50;;;;;;;;;;5116066;28;20480;-67
2021/06/15 03:51:11;;;;;;;24.98;6.45;;;;;;;;;;5116200;28;20019;-67
2021/06/15 03:53:37;;;;;;;19.75;5.45;;;;;;;;;;5116324;28;20032;-67
2021/06/15 03:56:03;;;;;;;21.50;5.75;;;;;;;;;;5116130;28;20028;-67
2021/06/15 03:58:31;;;;;;;15.48;6.15;;;;;;;;;;5116199;28;20095;-67
2021/06/15 04:00:57;;;;;;;21.98;5.75;;;;;;;;;;5098005;28;20063;-67
2021/06/15 04:03:23;;;;;;;17.58;6.55;;;;;;;;;;5101528;28;20043;-65
2021/06/15 04:05:51;;;;;;;24.70;6.35;;;;;;;;;;5107317;28;20028;-65
2021/06/15 04:08:18;;;;;;;21.88;6.00;;;;;;;;;;5115925;28;20099;-66
2021/06/15 04:10:44;;;;;;;17.50;5.90;;;;;;;;;;5115623;28;20050;-67
2021/06/15 04:13:10;;;;;;;19.88;5.93;;;;;;;;;;5115323;28;20020;-67
2021/06/15 04:15:35;;;;;;;18.23;6.15;;;;;;;;;;5114929;28;20498;-67
2021/06/15 04:18:01;;;;;;;20.55;6.25;;;;;;;;;;5115422;28;20031;-67
2021/06/15 04:20:31;;;;;;;20.08;6.10;;;;;;;;;;5115377;28;20023;-67
2021/06/15 04:22:57;;;;;;;19.48;6.22;;;;;;;;;;5115677;28;20100;-67
2021/06/15 04:25:26;;;;;;;23.08;5.70;;;;;;;;;;5115494;28;20034;-67
2021/06/15 04:27:52;;;;;;;17.40;6.20;;;;;;;;;;5115817;28;20061;-67
2021/06/15 04:30:19;;;;;;;19.38;5.93;;;;;;;;;;5115369;28;20031;-67
2021/06/15 04:32:57;;;;;;;17.02;5.47;;;;;;;;;;5115494;28;20024;-66
2021/06/15 04:35:27;;;;;;;20.35;6.75;;;;;;;;;;5114731;28;20058;-67
2021/06/15 04:37:54;;;;;;;17.17;5.60;;;;;;;;;;5113953;28;20027;-67
2021/06/15 04:40:21;;;;;;;21.67;6.35;;;;;;;;;;5115584;28;20028;-67
2021/06/15 04:42:57;;;;;;;19.35;5.22;;;;;;;;;;5096597;28;20093;-66
2021/06/15 04:45:25;;;;;;;12.82;4.95;;;;;;;;;;5115019;28;20511;-66
2021/06/15 04:47:58;;;;;;;19.35;5.20;;;;;;;;;;5114826;28;20038;-67
2021/06/15 04:50:27;;;;;;;17.60;4.75;;;;;;;;;;5114959;28;20046;-67
2021/06/15 04:52:53;;;;;;;20.90;4.60;;;;;;;;;;5115080;28;20070;-67
2021/06/15 04:55:24;;;;;;;14.35;4.22;;;;;;;;;;5115173;28;20039;-67
2021/06/15 04:57:49;;;;;;;14.32;3.97;;;;;;;;;;5111051;28;20384;-67
2021/06/15 05:00:15;;;;;;;15.52;4.22;;;;;;;;;;5114693;28;20031;-66
2021/06/15 05:02:43;;;;;;;18.42;3.65;;;;;;;;;;5114962;28;20065;-67
2021/06/15 05:05:11;;;;;;;10.60;3.22;;;;;;;;;;5114541;28;20012;-67
2021/06/15 05:07:39;;;;;;;9.38;3.58;;;;;;;;;;5113013;28;20453;-67
2021/06/15 05:10:05;;;;;;;11.98;2.92;;;;;;;;;;5114846;28;20039;-67
2021/06/15 05:12:38;;;;;;;11.00;3.00;;;;;;;;;;5114342;28;20094;-67
2021/06/15 05:15:08;;;;;;;12.95;3.05;;;;;;;;;;5096556;28;20383;-67
2021/06/15 05:17:34;;;;;;;5.95;2.35;;;;;;;;;;5114561;28;20537;-67
2021/06/15 05:19:59;;;;;;;8.15;2.10;;;;;;;;;;5114560;28;20019;-67
2021/06/15 05:22:25;;;;;;;9.80;2.17;;;;;;;;;;5114426;28;20100;-67
2021/06/15 05:24:52;;;;;;;9.10;2.58;;;;;;;;;;5114304;28;20031;-66
2021/06/15 05:27:19;;;;;;;8.45;2.42;;;;;;;;;;5114073;28;20483;-67
2021/06/15 05:29:44;;;;;;;8.13;2.33;;;;;;;;;;5114199;28;20069;-67
2021/06/15 05:32:10;;;;;;;9.73;2.05;;;;;;;;;;5113852;28;20032;-67
2021/06/15 05:34:36;;;;;;;8.18;2.17;;;;;;;;;;5114035;28;20028;-67
2021/06/15 05:37:02;;;;;;;7.30;2.08;;;;;;;;;;5113415;28;20035;-67
2021/06/15 05:39:27;;;;;;;8.15;2.28;;;;;;;;;;5114228;28;20043;-67
2021/06/15 05:41:52;;;;;;;7.28;2.20;;;;;;;;;;5114015;28;20024;-67
2021/06/15 05:44:18;;;;;;;6.30;2.03;;;;;;;;;;5114201;28;20020;-67
2021/06/15 05:46:43;;;;;;;10.63;2.20;;;;;;;;;;5114172;28;20541;-68
2021/06/15 05:49:08;;;;;;;8.13;2.30;;;;;;;;;;5113219;28;20043;-68
2021/06/15 05:51:33;;;;;;;5.70;1.50;;;;;;;;;;5114174;28;20418;-68
2021/06/15 05:54:02;;;;;;;8.55;1.90;;;;;;;;;;5113497;28;20032;-67
2021/06/15 05:56:28;;;;;;;4.95;2.13;;;;;;;;;;5113978;28;20026;-68
2021/06/15 05:58:53;;;;;;;5.75;1.70;;;;;;;;;;5113925;28;20107;-68
2021/06/15 06:01:18;;;;;;;7.10;2.03;;;;;;;;;;5094233;28;20023;-68
2021/06/15 06:03:49;;;;;;;8.25;1.90;;;;;;;;;;5113735;28;20460;-68
2021/06/15 06:08:58;;;;;;;6.47;2.42;;;;;;;;;;5113383;28;20041;-68
2021/06/15 06:11:23;;;;;;;5.13;1.98;;;;;;;;;;5113824;28;20127;-68
2021/06/15 06:13:53;;;;;;;5.20;1.92;;;;;;;;;;5113465;28;20764;-68
2021/06/15 06:16:18;;;;;;;7.63;2.50;;;;;;;;;;5100867;28;20038;-67
2021/06/15 06:18:44;;;;;;;8.55;2.40;;;;;;;;;;5113318;28;20414;-68
2021/06/15 06:21:11;;;;;;;5.00;2.63;;;;;;;;;;5112925;28;20114;-69
2021/06/15 06:23:37;;;;;;;8.23;2.38;;;;;;;;;;5113201;28;20364;-69
2021/06/15 06:26:02;;;;;;;8.40;2.75;;;;;;;;;;5113480;28;20044;-69
2021/06/15 06:28:27;;;;;;;8.55;2.30;;;;;;;;;;5112749;28;20031;-68
2021/06/15 06:30:53;;;;;;;7.50;2.40;;;;;;;;;;5113268;28;20027;-68
2021/06/15 06:33:18;;;;;;;9.55;2.80;;;;;;;;;;5113472;28;20492;-66
2021/06/15 06:35:43;;;;;;;11.85;2.45;;;;;;;;;;5113431;28;20024;-66
2021/06/15 06:38:08;;;;;;;8.93;2.45;;;;;;;;;;5113480;28;20024;-67
2021/06/15 06:40:34;;;;;;;10.30;2.35;;;;;;;;;;5112670;28;20466;-66
2021/06/15 06:42:59;;;;;;;8.43;2.42;;;;;;;;;;5112814;28;20511;-66
2021/06/15 06:45:25;;;;;;;7.25;2.42;;;;;;;;;;5112386;28;20016;-67
2021/06/15 06:47:50;;;;;;;8.15;2.08;;;;;;;;;;5112900;28;20496;-67
2021/06/15 06:50:16;;;;;;;7.18;2.53;;;;;;;;;;5113082;28;20113;-66
2021/06/15 06:52:41;;;;;;;10.07;2.75;;;;;;;;;;5111639;28;20061;-66
2021/06/15 06:55:06;;;;;;;13.93;3.00;;;;;;;;;;5112047;28;20084;-67
2021/06/15 06:57:32;;;;;;;7.57;2.83;;;;;;;;;;5111996;28;20474;-66
2021/06/15 06:59:57;;;;;;;9.15;2.53;;;;;;;;;;5115032;28;20513;-67
2021/06/15 07:02:22;;;;;;;11.00;2.47;;;;;;;;;;5116633;28;20426;-67
2021/06/15 07:04:48;;;;;;;12.82;2.75;;;;;;;;;;5116880;28;20028;-67
2021/06/15 07:07:13;;;;;;;10.30;2.20;;;;;;;;;;5116494;28;20024;-67
2021/06/15 07:09:38;;;;;;;10.13;2.63;;;;;;;;;;5116994;28;20040;-66
2021/06/15 07:12:04;;;;;;;10.13;2.65;;;;;;;;;;5116089;28;20043;-67
2021/06/15 07:14:29;;;;;;;10.40;2.30;;;;;;;;;;5117384;28;20026;-67
2021/06/15 07:16:54;;;;;;;9.38;2.85;;;;;;;;;;5116776;28;20460;-67
2021/06/15 07:19:20;;;;;;;12.60;3.33;;;;;;;;;;5117056;28;20027;-67
2021/06/15 07:21:45;;;;;;;8.97;2.23;;;;;;;;;;5116391;28;20367;-67
2021/06/15 07:24:10;;;;;;;11.00;2.67;;;;;;;;;;5116887;28;20267;-68
2021/06/15 07:26:35;;;;;;;7.30;2.38;;;;;;;;;;5115930;28;20476;-70
2021/06/15 07:29:01;;;;;;;9.60;2.63;;;;;;;;;;5116924;28;20023;-69
2021/06/15 07:31:27;;;;;;;10.80;2.80;;;;;;;;;;5116693;28;20039;-70
2021/06/15 07:33:52;;;;;;;11.98;2.90;;;;;;;;;;5116883;28;20033;-70
2021/06/15 07:36:17;;;;;;;8.40;2.50;;;;;;;;;;5116337;28;20024;-69
2021/06/15 07:38:42;;;;;;;8.70;2.20;;;;;;;;;;5116145;28;20260;-70
2021/06/15 07:41:08;;;;;;;8.35;2.60;;;;;;;;;;5116688;28;20132;-70
2021/06/15 07:43:34;;;;;;;6.28;2.17;;;;;;;;;;5116675;28;20375;-70
2021/06/15 07:45:59;;;;;;;10.77;2.50;;;;;;;;;;5115960;28;20043;-70
2021/06/15 07:48:24;;;;;;;7.80;2.13;;;;;;;;;;5116364;28;20084;-69
2021/06/15 07:50:50;;;;;;;6.70;2.40;;;;;;;;;;5116539;28;20020;-67
2021/06/15 07:53:17;;;;;;;8.45;2.40;;;;;;;;;;5116351;28;20264;-68
2021/06/15 07:55:43;;;;;;;6.55;2.30;;;;;;;;;;5116525;28;20031;-67
2021/06/15 07:58:08;;;;;;;8.80;2.33;;;;;;;;;;5115423;28;20027;-67
2021/06/15 08:00:34;;;;;;;7.32;2.42;;;;;;;;;;5116282;28;20283;-67
2021/06/15 08:02:59;;;;;;;12.68;2.75;;;;;;;;;;5115823;28;20463;-66
2021/06/15 08:05:25;;;;;;;9.83;2.47;;;;;;;;;;5116346;28;20020;-67
2021/06/15 08:07:52;;;;;;;10.00;2.50;;;;;;;;;;5115176;28;20342;-67
2021/06/15 08:10:19;;;;;;;7.78;2.58;;;;;;;;;;5115226;28;20594;-67
2021/06/15 08:12:45;;;;;;;9.52;2.75;;;;;;;;;;5115023;28;20030;-67
2021/06/15 08:15:10;;;;;;;10.40;2.70;;;;;;;;;;5115618;28;20035;-68
2021/06/15 08:17:36;;;;;;;9.02;2.47;;;;;;;;;;5116013;28;20035;-68
2021/06/15 08:20:03;;;;;;;9.75;2.72;;;;;;;;;;5115797;28;20085;-67
2021/06/15 08:22:28;;;;;;;7.95;2.67;;;;;;;;;;5115548;28;20032;-67
2021/06/15 08:24:54;;;;;;;8.48;2.47;;;;;;;;;;5115905;28;20035;-67
2021/06/15 08:27:19;;;;;;;5.57;2.13;;;;;;;;;;5114966;28;20051;-68
2021/06/15 08:29:44;;;;;;;8.77;2.70;;;;;;;;;;5115922;28;20112;-67
2021/06/15 08:32:09;;;;;;;5.97;2.47;;;;;;;;;;5115638;28;20031;-67
2021/06/15 08:34:35;;;;;;;8.82;2.97;;;;;;;;;;5114816;28;20023;-69
2021/06/15 08:37:01;;;;;;;9.07;2.63;;;;;;;;;;5114987;28;20035;-67
2021/06/15 08:39:27;;;;;;;7.28;2.60;;;;;;;;;;5115663;28;20031;-68
2021/06/15 08:41:52;;;;;;;7.60;2.72;;;;;;;;;;5115335;28;20084;-68
2021/06/15 08:44:17;;;;;;;7.93;2.53;;;;;;;;;;5115352;28;20376;-68
2021/06/15 08:46:43;;;;;;;13.85;2.95;;;;;;;;;;5114671;28;20268;-68
2021/06/15 08:49:09;;;;;;;8.18;2.80;;;;;;;;;;5115208;28;20023;-68
2021/06/15 08:51:35;;;;;;;6.67;2.60;;;;;;;;;;5115339;28;20135;-68
2021/06/15 08:54:04;;;;;;;7.53;2.45;;;;;;;;;;5114605;28;20737;-67
2021/06/15 08:56:33;;;;;;;8.68;2.83;;;;;;;;;;5114088;28;20027;-68
2021/06/15 08:58:58;;;;;;;6.25;2.17;;;;;;;;;;5114681;28;20409;-68
2021/06/15 09:01:23;;;;;;;7.75;2.90;;;;;;;;;;5114784;28;20161;-68
2021/06/15 09:03:53;;;;;;;9.63;2.93;;;;;;;;;;5114738;28;20019;-68
2021/06/15 09:06:18;;;;;;;6.50;2.70;;;;;;;;;;5114765;28;20267;-68
2021/06/15 09:08:53;;;;;;;8.73;2.40;;;;;;;;;;5114420;28;20035;-68
2021/06/15 09:11:19;;;;;;;10.15;2.90;;;;;;;;;;5094109;28;20480;-69
2021/06/15 09:13:45;;;;;;;10.75;2.80;;;;;;;;;;5102111;28;20038;-68
2021/06/15 09:16:21;;;;;;;5.55;2.13;;;;;;;;;;5114733;28;20485;-70
2021/06/15 09:18:47;;;;;;;6.47;2.30;;;;;;;;;;5114939;28;20390;-69
2021/06/15 09:21:23;;;;;;;10.93;2.70;;;;;;;;;;5114659;28;20035;-68
2021/06/15 09:23:48;;;;;;;12.10;2.63;;;;;;;;;;5114139;28;20392;-68
2021/06/15 09:26:14;;;;;;;7.75;2.10;;;;;;;;;;5114108;28;20023;-69
2021/06/15 09:28:49;;;;;;;9.00;2.65;;;;;;;;;;5114001;28;20464;-69
2021/06/15 09:31:14;;;;;;;7.30;3.55;;;;;;;;;;5114470;28;20107;-69
2021/06/15 09:33:40;;;;;;;8.70;2.70;;;;;;;;;;5114547;28;20115;-69
2021/06/15 09:36:14;;;;;;;6.47;2.33;;;;;;;;;;5114227;28;20271;-69
2021/06/15 09:38:54;;;;;;;7.00;2.30;;;;;;;;;;5114745;28;20038;-69
2021/06/15 09:41:39;;;;;;;6.78;2.20;;;;;;;;;;5114044;28;20475;-69
2021/06/15 09:44:27;;;;;;;6.43;2.40;;;;;;;;;;5114418;28;20028;-69
2021/06/15 09:46:56;;;;;;;9.32;2.92;;;;;;;;;;5114115;28;20134;-69
2021/06/15 09:49:26;;;;;;;6.15;2.25;;;;;;;;;;5114379;28;20028;-68
2021/06/15 09:52:27;;;;;;;6.82;2.33;;;;;;;;;;5114185;28;20462;-69
2021/06/15 09:54:52;;;;;;;7.28;2.38;;;;;;;;;;5011513;28;20529;-69
2021/06/15 09:57:20;;;;;;;7.25;2.20;;;;;;;;;;5092229;28;20181;-69
2021/06/15 10:00:04;;;;;;;6.38;2.20;;;;;;;;;;5113472;28;20030;-69
2021/06/15 10:02:30;;;;;;;10.88;2.30;;;;;;;;;;5108513;28;20031;-69
2021/06/15 10:04:55;;;;;;;6.65;2.55;;;;;;;;;;5104713;28;20036;-68
2021/06/15 10:07:27;;;;;;;14.30;2.67;;;;;;;;;;5105162;28;20047;-69
2021/06/15 10:09:54;;;;;;;7.38;2.30;;;;;;;;;;5093586;28;20107;-69
2021/06/15 10:12:20;;;;;;;7.60;2.55;;;;;;;;;;5093070;28;20496;-68
2021/06/15 10:14:45;;;;;;;8.57;2.10;;;;;;;;;;5098883;28;20016;-68
2021/06/15 10:17:11;;;;;;;7.45;3.03;;;;;;;;;;5113233;28;20044;-68
2021/06/15 10:19:38;;;;;;;7.43;2.28;;;;;;;;;;5113172;28;20357;-69
2021/06/15 10:22:04;;;;;;;5.72;2.13;;;;;;;;;;5112461;28;20019;-67
2021/06/15 10:24:29;;;;;;;9.60;2.67;;;;;;;;;;5113523;28;20027;-69
2021/06/15 10:26:54;;;;;;;9.38;2.28;;;;;;;;;;5108492;28;20024;-69
2021/06/15 10:29:20;;;;;;;10.45;2.80;;;;;;;;;;5102766;28;20103;-68
2021/06/15 10:31:47;;;;;;;7.40;2.10;;;;;;;;;;5093217;28;20427;-68
2021/06/15 10:34:13;;;;;;;7.63;2.35;;;;;;;;;;5110031;28;20077;-68
2021/06/15 10:36:46;;;;;;;6.78;2.30;;;;;;;;;;5119178;28;20039;-68
2021/06/15 10:39:30;;;;;;;9.27;2.25;;;;;;;;;;5118925;28;20019;-68
2021/06/15 10:42:27;;;;;;;16.20;2.92;;;;;;;;;;5114046;28;20030;-68
2021/06/15 10:45:11;;;;;;;7.55;2.53;;;;;;;;;;5063743;28;20043;-70
2021/06/15 10:47:36;;;;;;;12.05;2.30;;;;;;;;;;5101380;28;20399;-69
2021/06/15 10:50:02;;;;;;;7.38;2.17;;;;;;;;;;5119827;28;20106;-70
2021/06/15 10:52:59;;;;;;;13.52;2.67;;;;;;;;;;5119054;28;20115;-70
2021/06/15 10:55:45;;;;;;;9.52;1.98;;;;;;;;;;5094988;28;20417;-68
2021/06/15 10:58:10;;;;;;;10.48;2.03;;;;;;;;;;5111161;28;20027;-69
2021/06/15 11:00:44;;;;;;;8.88;2.25;;;;;;;;;;5120358;28;20491;-69
2021/06/15 11:03:16;;;;;;;7.10;2.17;;;;;;;;;;5100786;28;20111;-69
2021/06/15 11:05:43;;;;;;;9.02;2.30;;;;;;;;;;5108706;28;20020;-68
2021/06/15 11:08:14;;;;;;;9.90;2.28;;;;;;;;;;5119916;28;20046;-69
2021/06/15 11:10:43;;;;;;;12.38;2.65;;;;;;;;;;5119918;28;20046;-68
2021/06/15 11:13:09;;;;;;;8.73;2.40;;;;;;;;;;5119857;28;20020;-69
2021/06/15 11:15:34;;;;;;;7.97;1.98;;;;;;;;;;5119596;28;20027;-69
2021/06/15 11:18:12;;;;;;;9.30;2.30;;;;;;;;;;5119700;28;20418;-67
2021/06/15 11:20:39;;;;;;;7.93;2.58;;;;;;;;;;5116674;28;20515;-69
2021/06/15 11:23:12;;;;;;;8.00;2.03;;;;;;;;;;5120023;28;20115;-69
2021/06/15 11:25:45;;;;;;;9.18;2.30;;;;;;;;;;5113161;28;20770;-68
2021/06/15 11:28:28;;;;;;;8.73;2.05;;;;;;;;;;5103980;28;20028;-68
2021/06/15 11:31:14;;;;;;;6.70;2.08;;;;;;;;;;5109834;28;20402;-68
2021/06/15 11:33:58;;;;;;;7.03;1.60;;;;;;;;;;5116154;28;20035;-68
2021/06/15 11:36:41;;;;;;;6.55;2.20;;;;;;;;;;5114001;28;20365;-68
2021/06/15 11:39:21;;;;;;;7.30;1.83;;;;;;;;;;5119274;28;20038;-68
2021/06/15 11:42:05;;;;;;;10.75;1.98;;;;;;;;;;5102332;28;20032;-68
2021/06/15 11:44:51;;;;;;;6.35;1.80;;;;;;;;;;5109560;28;20032;-69
2021/06/15 11:47:36;;;;;;;6.18;1.73;;;;;;;;;;5099687;28;20039;-68
2021/06/15 11:50:03;;;;;;;10.88;1.65;;;;;;;;;;5112878;28;20061;-68
2021/06/15 11:52:32;;;;;;;5.25;1.45;;;;;;;;;;5111524;28;20492;-68
2021/06/15 11:54:58;;;;;;;7.50;2.08;;;;;;;;;;5116262;28;20376;-68
2021/06/15 11:57:24;;;;;;;5.82;1.35;;;;;;;;;;5115769;28;20035;-67
2021/06/15 11:59:49;;;;;;;10.63;1.83;;;;;;;;;;5107626;28;20387;-68
2021/06/15 12:02:18;;;;;;;5.95;1.50;;;;;;;;;;5111201;28;20036;-68
2021/06/15 12:05:01;;;;;;;8.50;1.85;;;;;;;;;;5112769;28;20034;-66
2021/06/15 12:07:27;;;;;;;9.02;2.13;;;;;;;;;;5112832;28;20368;-68
2021/06/15 12:10:28;;;;;;;9.98;1.92;;;;;;;;;;5112604;28;20077;-69
2021/06/15 12:12:56;;;;;;;7.47;2.08;;;;;;;;;;5029947;28;20045;-67
2021/06/15 12:15:27;;;;;;;9.70;1.90;;;;;;;;;;5073710;28;20074;-67
2021/06/15 12:17:52;;;;;;;6.30;0.98;;;;;;;;;;5091603;28;20073;-67
2021/06/15 12:20:26;;;;;;;5.15;1.92;;;;;;;;;;5094297;28;20456;-68
2021/06/15 12:22:51;;;;;;;8.10;1.73;;;;;;;;;;5103135;28;20024;-67
2021/06/15 12:25:16;;;;;;;10.55;2.40;;;;;;;;;;5093670;28;20456;-67
2021/06/15 12:27:42;;;;;;;10.05;1.73;;;;;;;;;;5112599;28;20020;-67
2021/06/15 12:30:07;;;;;;;8.32;2.00;;;;;;;;;;5112185;28;20421;-68
2021/06/15 12:32:45;;;;;;;6.88;1.98;;;;;;;;;;5113008;28;20047;-67
2021/06/15 12:35:18;;;;;;;9.20;2.00;;;;;;;;;;5105513;28;20028;-68
2021/06/15 12:37:43;;;;;;;8.48;2.10;;;;;;;;;;5092595;28;20047;-68
2021/06/15 12:40:09;;;;;;;11.57;2.15;;;;;;;;;;5107495;28;20019;-68
2021/06/15 12:42:34;;;;;;;10.32;2.55;;;;;;;;;;5112444;28;20026;-68
2021/06/15 12:45:00;;;;;;;12.48;2.60;;;;;;;;;;5113504;28;20028;-68
2021/06/15 12:47:27;;;;;;;8.57;2.60;;;;;;;;;;5112719;28;20020;-68
2021/06/15 12:49:53;;;;;;;11.50;2.05;;;;;;;;;;5112813;28;20341;-68
2021/06/15 12:52:19;;;;;;;7.13;2.10;;;;;;;;;;5112452;28;20463;-68
2021/06/15 12:54:46;;;;;;;6.40;2.25;;;;;;;;;;5111320;28;20022;-67
2021/06/15 12:57:18;;;;;;;4.70;1.67;;;;;;;;;;5110930;28;20080;-67
2021/06/15 12:59:55;;;;;;;6.22;1.60;;;;;;;;;;5106051;28;20059;-68
2021/06/15 13:02:22;;;;;;;6.15;1.55;;;;;;;;;;5112586;28;20027;-68
2021/06/15 13:04:49;;;;;;;4.88;1.40;;;;;;;;;;5111584;28;20044;-68
2021/06/15 13:07:14;;;;;;;4.80;1.13;;;;;;;;;;5112173;28;20058;-65
2021/06/15 13:09:40;;;;;;;8.77;1.70;;;;;;;;;;5112114;28;20065;-68
2021/06/15 13:12:07;;;;;;;8.07;1.75;;;;;;;;;;5112000;28;20551;-68
2021/06/15 13:14:33;;;;;;;5.45;1.73;;;;;;;;;;5110996;28;20035;-67
2021/06/15 13:17:00;;;;;;;5.55;1.42;;;;;;;;;;5111555;28;20039;-68
2021/06/15 13:19:35;;;;;;;10.38;1.73;;;;;;;;;;5111315;28;20031;-68
2021/06/15 13:22:01;;;;;;;6.57;1.30;;;;;;;;;;5111429;28;20028;-68
2021/06/15 13:24:34;;;;;;;3.97;1.08;;;;;;;;;;5097678;28;20404;-68
2021/06/15 13:27:17;;;;;;;4.75;1.38;;;;;;;;;;5111321;28;20106;-68
2021/06/15 13:29:43;;;;;;;5.60;2.03;;;;;;;;;;5111179;28;20020;-68
2021/06/15 13:32:15;;;;;;;4.75;1.20;;;;;;;;;;5111403;28;20426;-68
2021/06/15 13:34:59;;;;;;;8.55;1.70;;;;;;;;;;5108398;28;20461;-68
2021/06/15 13:37:28;;;;;;;6.47;1.35;;;;;;;;;;5091875;28;20114;-68
2021/06/15 13:39:53;;;;;;;6.82;1.10;;;;;;;;;;5095697;28;20039;-68
2021/06/15 13:42:24;;;;;;;6.50;1.75;;;;;;;;;;5112159;28;20419;-68
2021/06/15 13:44:59;;;;;;;5.38;1.38;;;;;;;;;;5111502;28;20077;-68
2021/06/15 13:47:25;;;;;;;6.95;1.40;;;;;;;;;;5110692;28;20035;-68
2021/06/15 13:49:50;;;;;;;4.85;1.48;;;;;;;;;;5111031;28;20027;-67
2021/06/15 13:52:15;;;;;;;3.58;1.08;;;;;;;;;;5110762;28;20114;-67
2021/06/15 13:54:40;;;;;;;8.15;1.60;;;;;;;;;;5109893;28;20023;-68
2021/06/15 13:57:06;;;;;;;7.78;1.52;;;;;;;;;;5111728;28;20039;-68
2021/06/15 13:59:31;;;;;;;12.05;1.88;;;;;;;;;;5111338;28;20357;-67
2021/06/15 14:01:57;;;;;;;9.55;1.60;;;;;;;;;;5109458;28;20509;-68
2021/06/15 14:04:22;;;;;;;6.88;2.13;;;;;;;;;;5110826;28;20063;-68
2021/06/15 14:06:47;;;;;;;6.18;1.60;;;;;;;;;;5111016;28;20460;-68
2021/06/15 14:09:13;;;;;;;5.43;1.40;;;;;;;;;;5110543;28;20015;-65
2021/06/15 14:11:39;;;;;;;11.40;1.80;;;;;;;;;;5110952;28;20043;-68
2021/06/15 14:14:04;;;;;;;5.47;1.80;;;;;;;;;;5111092;28;20084;-68
2021/06/15 14:16:29;;;;;;;7.05;1.95;;;;;;;;;;5111073;28;20027;-68
2021/06/15 14:18:55;;;;;;;8.23;1.85;;;;;;;;;;5111321;28;20031;-68
2021/06/15 14:21:20;;;;;;;9.95;1.73;;;;;;;;;;5111319;28;20032;-68
2021/06/15 14:23:45;;;;;;;6.57;2.00;;;;;;;;;;5108302;28;20027;-68
2021/06/15 14:26:10;;;;;;;8.30;1.95;;;;;;;;;;5110733;28;20038;-68
2021/06/15 14:28:36;;;;;;;6.97;2.10;;;;;;;;;;5110139;28;20039;-68
2021/06/15 14:31:02;;;;;;;10.93;2.33;;;;;;;;;;5110539;28;20015;-68
2021/06/15 14:33:27;;;;;;;9.75;2.25;;;;;;;;;;5110412;28;20475;-68
2021/06/15 14:35:52;;;;;;;8.25;1.85;;;;;;;;;;5097461;28;20461;-68
2021/06/15 14:38:18;;;;;;;4.82;1.83;;;;;;;;;;5090140;28;20467;-68
2021/06/15 14:40:43;;;;;;;6.05;1.85;;;;;;;;;;5089479;28;20035;-68
2021/06/15 14:43:08;;;;;;;5.88;1.63;;;;;;;;;;5089868;28;20097;-67
2021/06/15 14:45:34;;;;;;;7.57;1.70;;;;;;;;;;5089918;28;20031;-68
2021/06/15 14:47:59;;;;;;;8.32;1.70;;;;;;;;;;5090527;28;20035;-68